createdAt,value
2024-01-16T00:02:02.375Z,65.95
2024-01-16T00:04:31.005Z,65.84
2024-01-16T00:06:57.774Z,65.80
2024-01-16T00:09:24.749Z,65.88
2024-01-16T00:11:51.501Z,65.92
2024-01-16T00:14:18.566Z,65.79
2024-01-16T00:16:46.279Z,65.60
2024-01-16T00:19:13.465Z,65.83
2024-01-16T00:21:44.144Z,65.81
2024-01-16T00:24:10.796Z,65.73
2024-01-16T00:26:37.617Z,65.89
2024-01-16T00:29:04.414Z,65.93
2024-01-16T00:31:31.084Z,65.83
2024-01-16T00:33:57.750Z,65.88
2024-01-16T00:36:24.507Z,65.82
2024-01-16T00:38:51.220Z,65.86
2024-01-16T00:41:17.987Z,66.18
2024-01-16T00:43:45.153Z,65.81
2024-01-16T00:46:12.312Z,66.00
2024-01-16T00:48:39.157Z,66.18
2024-01-16T00:51:06.082Z,66.05
2024-01-16T00:53:32.750Z,66.15
2024-01-16T00:55:59.501Z,66.16
2024-01-16T00:58:26.342Z,66.11
2024-01-16T01:00:53.014Z,66.31
2024-01-16T01:03:19.574Z,65.97
2024-01-16T01:05:46.153Z,66.33
2024-01-16T01:08:12.869Z,66.19
2024-01-16T01:10:39.533Z,66.25
2024-01-16T01:13:06.091Z,66.16
2024-01-16T01:15:32.665Z,66.17
2024-01-16T01:17:59.600Z,66.11
2024-01-16T01:20:26.924Z,66.22
2024-01-16T01:22:53.601Z,66.25
2024-01-16T01:25:20.272Z,66.16
2024-01-16T01:27:46.854Z,66.06
2024-01-16T01:30:13.975Z,66.05
2024-01-16T01:32:40.947Z,66.13
2024-01-16T01:35:08.377Z,66.18
2024-01-16T01:37:35.072Z,66.11
2024-01-16T01:40:01.680Z,66.26
2024-01-16T01:42:28.281Z,66.20
2024-01-16T01:44:54.930Z,66.33
2024-01-16T01:47:21.695Z,66.30
2024-01-16T01:49:48.918Z,66.62
2024-01-16T01:52:15.756Z,66.33
2024-01-16T01:54:42.425Z,66.25
2024-01-16T01:57:09.749Z,66.35
2024-01-16T01:59:36.663Z,66.42
2024-01-16T02:02:04.289Z,66.38
2024-01-16T02:04:32.479Z,66.31
2024-01-16T02:06:59.363Z,66.41
2024-01-16T02:09:25.954Z,66.40
2024-01-16T02:11:52.712Z,66.53
2024-01-16T02:14:19.500Z,66.44
2024-01-16T02:16:46.612Z,66.46
2024-01-16T02:19:13.331Z,66.51
2024-01-16T02:21:43.308Z,66.60
2024-01-16T02:24:12.199Z,66.48
2024-01-16T02:26:39.009Z,66.43
2024-01-16T02:29:05.898Z,66.52
2024-01-16T02:31:33.469Z,66.71
2024-01-16T02:34:01.013Z,66.59
2024-01-16T02:36:28.756Z,66.54
2024-01-16T02:38:57.773Z,66.63
2024-01-16T02:41:24.493Z,66.76
2024-01-16T02:43:51.062Z,66.78
2024-01-16T02:46:18.216Z,66.72
2024-01-16T02:48:45.017Z,66.68
2024-01-16T02:51:11.913Z,66.78
2024-01-16T02:53:38.554Z,66.76
2024-01-16T02:56:05.448Z,66.92
2024-01-16T02:58:32.167Z,66.88
2024-01-16T03:00:58.773Z,66.92
2024-01-16T03:03:26.030Z,66.84
2024-01-16T03:05:52.798Z,66.66
2024-01-16T03:08:19.449Z,66.79
2024-01-16T03:10:46.297Z,66.80
2024-01-16T03:13:12.970Z,66.78
2024-01-16T03:15:39.574Z,66.82
2024-01-16T03:18:06.384Z,66.91
2024-01-16T03:20:33.820Z,66.83
2024-01-16T03:23:00.511Z,66.82
2024-01-16T03:25:27.420Z,66.84
2024-01-16T03:27:53.993Z,66.94
2024-01-16T03:30:20.767Z,67.04
2024-01-16T03:32:47.510Z,67.07
2024-01-16T03:35:14.248Z,66.93
2024-01-16T03:37:40.875Z,66.90
2024-01-16T03:40:08.616Z,66.95
2024-01-16T03:42:35.254Z,66.87
2024-01-16T03:45:01.814Z,66.85
2024-01-16T03:47:28.554Z,66.86
2024-01-16T03:49:55.202Z,66.88
2024-01-16T03:52:21.759Z,67.03
2024-01-16T03:54:48.346Z,66.81
2024-01-16T03:57:14.897Z,66.96
2024-01-16T03:59:41.641Z,67.06
2024-01-16T04:02:08.313Z,66.96
2024-01-16T04:04:35.713Z,66.86
2024-01-16T04:07:04.165Z,66.85
2024-01-16T04:09:30.883Z,66.87
2024-01-16T04:12:00.593Z,66.89
2024-01-16T04:14:27.308Z,66.99
2024-01-16T04:16:53.935Z,67.17
2024-01-16T04:19:20.864Z,66.92
2024-01-16T04:21:47.690Z,66.87
2024-01-16T04:24:14.298Z,66.87
2024-01-16T04:26:41.171Z,66.96
2024-01-16T04:29:07.847Z,66.92
2024-01-16T04:31:41.002Z,66.93
2024-01-16T04:34:07.711Z,67.00
2024-01-16T04:36:34.347Z,66.95
2024-01-16T04:39:01.419Z,66.86
2024-01-16T04:41:28.276Z,66.89
2024-01-16T04:43:54.982Z,67.00
2024-01-16T04:46:21.674Z,67.03
2024-01-16T04:48:48.438Z,67.00
2024-01-16T04:51:15.083Z,66.96
2024-01-16T04:53:41.992Z,67.02
2024-01-16T04:56:08.724Z,67.03
2024-01-16T04:58:35.410Z,67.00
2024-01-16T05:01:04.510Z,66.92
2024-01-16T05:03:31.151Z,66.87
2024-01-16T05:05:58.250Z,66.85
2024-01-16T05:13:48.194Z,66.70
2024-01-16T05:16:14.848Z,66.86
2024-01-16T05:18:44.687Z,66.81
2024-01-16T05:21:11.346Z,66.87
2024-01-16T05:23:38.484Z,66.74
2024-01-16T05:26:05.345Z,66.79
2024-01-16T05:28:31.975Z,66.62
2024-01-16T05:30:58.716Z,66.74
2024-01-16T05:33:25.457Z,66.78
2024-01-16T05:35:52.329Z,66.71
2024-01-16T05:38:19.224Z,66.69
2024-01-16T05:40:48.069Z,66.58
2024-01-16T05:43:15.710Z,66.75
2024-01-16T05:45:42.536Z,66.66
2024-01-16T05:48:32.296Z,66.55
2024-01-16T05:51:32.997Z,66.69
2024-01-16T05:53:59.527Z,66.60
2024-01-16T05:56:26.210Z,66.49
2024-01-16T05:58:53.440Z,66.58
2024-01-16T06:01:20.177Z,66.44
2024-01-16T06:03:49.873Z,66.42
2024-01-16T06:06:17.452Z,66.40
2024-01-16T06:08:44.336Z,66.32
2024-01-16T06:11:14.209Z,66.57
2024-01-16T06:13:41.351Z,66.74
2024-01-16T06:16:11.430Z,67.12
2024-01-16T06:18:38.197Z,67.08
2024-01-16T06:21:05.154Z,67.18
2024-01-16T06:23:31.877Z,67.10
2024-01-16T06:25:58.584Z,67.35
2024-01-16T06:28:25.185Z,67.16
2024-01-16T06:30:51.918Z,67.44
2024-01-16T06:33:18.671Z,67.48
2024-01-16T06:35:45.328Z,67.30
2024-01-16T06:38:11.993Z,67.40
2024-01-16T06:40:38.837Z,67.38
2024-01-16T06:43:06.755Z,67.24
2024-01-16T06:45:33.376Z,67.12
2024-01-16T06:48:00.254Z,67.15
2024-01-16T06:50:27.006Z,67.29
2024-01-16T06:52:53.656Z,67.20
2024-01-16T06:55:20.257Z,67.05
2024-01-16T06:57:47.828Z,67.06
2024-01-16T07:00:15.768Z,66.96
2024-01-16T07:02:44.565Z,67.03
2024-01-16T07:05:12.714Z,66.92
2024-01-16T07:07:39.522Z,66.96
2024-01-16T07:10:09.334Z,66.91
2024-01-16T07:12:36.030Z,66.85
2024-01-16T07:15:02.677Z,66.81
2024-01-16T07:17:30.265Z,66.80
2024-01-16T07:19:57.118Z,66.82
2024-01-16T07:22:23.779Z,66.76
2024-01-16T07:24:50.409Z,66.65
2024-01-16T07:27:17.072Z,66.76
2024-01-16T07:29:43.689Z,66.63
2024-01-16T07:32:12.173Z,66.74
2024-01-16T07:34:38.824Z,66.64
2024-01-16T07:37:05.379Z,66.91
2024-01-16T07:39:31.961Z,66.76
2024-01-16T07:41:58.564Z,66.96
2024-01-16T07:44:25.227Z,66.90
2024-01-16T07:46:51.812Z,66.91
2024-01-16T07:49:18.514Z,66.83
2024-01-16T07:51:45.090Z,66.89
2024-01-16T07:54:11.780Z,66.86
2024-01-16T07:56:39.082Z,66.65
2024-01-16T07:59:05.904Z,66.50
2024-01-16T08:01:33.604Z,66.27
2024-01-16T08:04:00.505Z,66.05
2024-01-16T08:06:27.659Z,65.88
2024-01-16T08:08:54.483Z,66.02
2024-01-16T08:11:21.367Z,65.84
2024-01-16T08:13:47.996Z,65.80
2024-01-16T08:16:14.634Z,65.89
2024-01-16T08:18:41.480Z,65.89
2024-01-16T08:21:08.774Z,65.92
2024-01-16T08:23:35.673Z,65.77
2024-01-16T08:26:05.201Z,65.68
2024-01-16T08:28:31.758Z,65.64
2024-01-16T08:30:59.969Z,65.83
2024-01-16T08:33:33.739Z,65.70
2024-01-16T08:36:05.496Z,65.76
2024-01-16T08:38:32.351Z,65.81
2024-01-16T08:40:58.963Z,65.71
2024-01-16T08:43:25.581Z,65.59
2024-01-16T08:45:52.141Z,65.76
2024-01-16T08:48:18.939Z,65.44
2024-01-16T08:50:45.730Z,65.28
2024-01-16T08:53:12.372Z,65.47
2024-01-16T08:55:38.946Z,65.38
2024-01-16T08:58:05.627Z,65.27
2024-01-16T09:00:32.358Z,65.25
2024-01-16T09:03:00.465Z,65.08
2024-01-16T09:05:28.303Z,65.10
2024-01-16T09:07:54.969Z,65.22
2024-01-16T09:10:21.643Z,65.11
2024-01-16T09:12:49.889Z,65.12
2024-01-16T09:15:17.976Z,65.01
2024-01-16T09:17:47.254Z,65.06
2024-01-16T09:20:18.421Z,64.89
2024-01-16T09:22:45.005Z,65.04
2024-01-16T09:25:13.668Z,64.72
2024-01-16T09:27:40.360Z,64.87
2024-01-16T09:30:08.623Z,64.79
2024-01-16T09:32:38.498Z,64.89
2024-01-16T09:35:07.900Z,64.78
2024-01-16T09:37:34.553Z,64.79
2024-01-16T09:40:01.310Z,64.51
2024-01-16T09:42:28.647Z,64.39
2024-01-16T09:44:56.524Z,64.48
2024-01-16T09:47:23.591Z,64.42
2024-01-16T09:49:50.342Z,64.25
2024-01-16T09:52:20.193Z,64.28
2024-01-16T09:54:46.858Z,64.08
2024-01-16T09:57:15.333Z,64.17
2024-01-16T09:59:42.242Z,64.29
2024-01-16T10:02:11.836Z,64.33
2024-01-16T10:04:38.629Z,64.15
2024-01-16T10:07:05.531Z,64.27
2024-01-16T10:09:32.310Z,64.34
2024-01-16T10:12:01.152Z,64.21
2024-01-16T10:14:28.009Z,64.20
2024-01-16T10:17:07.245Z,64.28
2024-01-16T10:19:43.341Z,64.04
2024-01-16T10:22:24.461Z,63.95
2024-01-16T10:25:13.590Z,63.93
2024-01-16T10:27:41.292Z,63.89
2024-01-16T10:30:08.657Z,63.84
2024-01-16T10:32:43.123Z,63.79
2024-01-16T10:35:15.008Z,63.81
2024-01-16T10:37:46.829Z,63.71
2024-01-16T10:40:32.159Z,63.75
2024-01-16T10:43:06.669Z,63.79
2024-01-16T10:45:34.259Z,63.89
2024-01-16T10:48:08.972Z,63.93
2024-01-16T10:50:38.462Z,63.74
2024-01-16T10:53:06.201Z,63.75
2024-01-16T10:55:39.764Z,63.62
2024-01-16T10:58:06.525Z,63.61
2024-01-16T11:00:34.554Z,63.61
2024-01-16T11:03:10.552Z,63.46
2024-01-16T11:05:38.637Z,63.34
2024-01-16T11:08:07.120Z,63.39
2024-01-16T11:10:35.222Z,63.32
2024-01-16T11:13:03.219Z,63.33
2024-01-16T11:15:30.015Z,63.19
2024-01-16T11:17:57.718Z,63.42
2024-01-16T11:20:38.780Z,63.27
2024-01-16T11:23:13.097Z,63.02
2024-01-16T11:25:40.692Z,63.01
2024-01-16T11:28:14.837Z,62.94
2024-01-16T11:30:42.243Z,62.86
2024-01-16T11:33:34.889Z,62.78
2024-01-16T11:36:02.256Z,62.71
2024-01-16T11:38:30.592Z,62.80
2024-01-16T11:40:57.613Z,62.74
2024-01-16T11:43:33.682Z,62.66
2024-01-16T11:46:05.370Z,62.58
2024-01-16T11:48:32.064Z,62.58
2024-01-16T11:50:58.816Z,62.46
2024-01-16T11:53:31.685Z,62.41
2024-01-16T11:56:34.309Z,62.41
2024-01-16T11:59:29.019Z,62.32
2024-01-16T12:01:59.361Z,62.22
2024-01-16T12:04:26.613Z,62.15
2024-01-16T12:07:00.985Z,62.06
2024-01-16T12:09:28.832Z,62.10
2024-01-16T12:12:00.358Z,61.91
2024-01-16T12:14:27.203Z,62.10
2024-01-16T12:16:54.061Z,61.95
2024-01-16T12:19:20.893Z,61.56
2024-01-16T12:21:47.548Z,61.85
2024-01-16T12:24:18.414Z,61.83
2024-01-16T12:26:45.497Z,61.98
2024-01-16T12:29:12.247Z,62.09
2024-01-16T12:31:38.896Z,61.69
2024-01-16T12:34:11.495Z,61.72
2024-01-16T12:36:39.252Z,61.62
2024-01-16T12:39:06.670Z,61.16
2024-01-16T12:41:43.004Z,61.03
2024-01-16T12:44:15.903Z,60.84
2024-01-16T12:47:03.901Z,60.72
2024-01-16T12:49:31.058Z,60.31
2024-01-16T12:52:21.801Z,60.01
2024-01-16T12:54:50.297Z,60.10
2024-01-16T12:57:23.154Z,59.63
2024-01-16T12:59:51.312Z,59.68
2024-01-16T13:02:27.471Z,59.20
2024-01-16T13:05:05.127Z,59.06
2024-01-16T13:07:34.919Z,58.95
2024-01-16T13:10:17.370Z,58.62
2024-01-16T13:12:44.399Z,58.61
2024-01-16T13:15:18.004Z,58.39
2024-01-16T13:17:47.033Z,58.25
2024-01-16T13:20:24.667Z,57.86
2024-01-16T13:22:53.077Z,58.00
2024-01-16T13:25:19.799Z,57.73
2024-01-16T13:27:47.000Z,57.57
2024-01-16T13:30:19.681Z,57.32
2024-01-16T13:32:48.900Z,57.32
2024-01-16T13:35:15.632Z,57.12
2024-01-16T13:37:42.640Z,57.06
2024-01-16T13:40:16.502Z,56.78
2024-01-16T13:42:45.309Z,56.86
2024-01-16T13:45:14.654Z,56.86
2024-01-16T13:47:42.229Z,56.74
2024-01-16T13:50:09.442Z,56.83
2024-01-16T13:52:36.922Z,56.80
2024-01-16T13:55:08.094Z,56.96
2024-01-16T13:57:38.265Z,56.92
2024-01-16T14:00:06.525Z,56.97
2024-01-16T14:02:33.311Z,56.94
2024-01-16T14:05:00.273Z,56.94
2024-01-16T14:07:27.174Z,56.79
2024-01-16T14:09:53.826Z,56.71
2024-01-16T14:12:20.463Z,56.59
2024-01-16T14:14:48.731Z,56.61
2024-01-16T14:17:15.486Z,56.41
2024-01-16T14:19:42.159Z,56.35
2024-01-16T14:22:08.753Z,56.29
2024-01-16T14:24:44.536Z,56.26
2024-01-16T14:27:11.822Z,56.25
2024-01-16T14:29:41.127Z,56.14
2024-01-16T14:32:08.092Z,56.09
2024-01-16T14:34:34.891Z,56.07
2024-01-16T14:37:01.759Z,55.88
2024-01-16T14:39:32.075Z,55.95
2024-01-16T14:42:00.028Z,56.02
2024-01-16T14:44:26.741Z,55.94
2024-01-16T14:46:55.412Z,55.72
2024-01-16T14:49:25.246Z,55.84
2024-01-16T14:51:52.123Z,55.47
2024-01-16T14:54:19.324Z,55.33
2024-01-16T14:56:49.955Z,55.52
2024-01-16T14:59:17.059Z,55.44
2024-01-16T15:01:45.288Z,55.33
2024-01-16T15:04:15.470Z,55.27
2024-01-16T15:06:42.599Z,55.14
2024-01-16T15:09:13.330Z,55.22
2024-01-16T15:11:41.158Z,55.14
2024-01-16T15:14:08.077Z,55.09
2024-01-16T15:16:34.956Z,55.15
2024-01-16T15:19:03.885Z,55.07
2024-01-16T15:21:30.554Z,55.12
2024-01-16T15:23:57.790Z,54.94
2024-01-16T15:26:26.486Z,55.11
2024-01-16T15:28:53.309Z,54.95
2024-01-16T15:31:22.420Z,54.99
2024-01-16T15:33:49.100Z,55.04
2024-01-16T15:36:15.820Z,54.94
2024-01-16T15:38:43.668Z,54.93
2024-01-16T15:41:10.273Z,54.92
2024-01-16T15:43:38.040Z,54.88
2024-01-16T15:46:07.366Z,54.88
2024-01-16T15:48:35.626Z,54.97
2024-01-16T15:51:02.848Z,54.92
2024-01-16T15:53:30.004Z,54.88
2024-01-16T15:55:56.654Z,54.97
2024-01-16T15:58:23.356Z,54.88
2024-01-16T16:00:49.989Z,55.02
2024-01-16T16:03:16.800Z,54.98
2024-01-16T16:05:43.585Z,55.04
2024-01-16T16:08:11.551Z,54.79
2024-01-16T16:10:38.235Z,54.81
2024-01-16T16:13:05.497Z,54.95
2024-01-16T16:15:32.856Z,54.80
2024-01-16T16:17:59.756Z,54.76
2024-01-16T16:20:27.044Z,54.80
2024-01-16T16:22:54.601Z,55.11
2024-01-16T16:25:21.315Z,54.89
2024-01-16T16:27:48.977Z,54.88
2024-01-16T16:30:15.824Z,54.85
2024-01-16T16:32:42.884Z,54.80
2024-01-16T16:35:10.708Z,54.87
2024-01-16T16:37:37.390Z,54.73
2024-01-16T16:40:06.027Z,54.90
2024-01-16T16:42:33.207Z,54.91
2024-01-16T16:45:00.477Z,54.91
2024-01-16T16:47:27.286Z,55.04
2024-01-16T16:49:53.921Z,55.19
2024-01-16T16:52:20.842Z,55.38
2024-01-16T16:54:49.058Z,55.53
2024-01-16T16:57:18.750Z,55.35
2024-01-16T16:59:46.499Z,55.46
2024-01-16T17:02:16.316Z,55.59
2024-01-16T17:04:43.505Z,55.25
2024-01-16T17:07:13.696Z,55.38
2024-01-16T17:09:42.952Z,55.45
2024-01-16T17:12:09.952Z,55.41
2024-01-16T17:14:44.297Z,55.35
2024-01-16T17:17:12.267Z,55.45
2024-01-16T17:19:39.221Z,55.21
2024-01-16T17:22:09.247Z,55.33
2024-01-16T17:24:39.426Z,55.34
2024-01-16T17:27:09.135Z,55.43
2024-01-16T17:29:36.736Z,55.21
2024-01-16T17:32:06.215Z,55.31
2024-01-16T17:34:32.890Z,55.24
2024-01-16T17:36:59.584Z,55.25
2024-01-16T17:39:27.012Z,55.51
2024-01-16T17:41:53.723Z,55.44
2024-01-16T17:44:20.672Z,55.39
2024-01-16T17:46:47.338Z,55.25
2024-01-16T17:49:17.343Z,55.47
2024-01-16T17:51:47.986Z,55.28
2024-01-16T17:54:17.885Z,55.26
2024-01-16T17:56:50.510Z,55.15
2024-01-16T17:59:19.575Z,55.16
2024-01-16T18:01:47.817Z,55.26
2024-01-16T18:04:19.081Z,55.23
2024-01-16T18:06:51.892Z,55.12
2024-01-16T18:09:20.520Z,55.24
2024-01-16T18:11:54.408Z,55.00
2024-01-16T18:14:22.165Z,55.05
2024-01-16T18:16:52.726Z,55.16
2024-01-16T18:19:20.815Z,55.10
2024-01-16T18:21:47.505Z,55.16
2024-01-16T18:24:17.076Z,55.03
2024-01-16T18:26:51.660Z,55.06
2024-01-16T18:29:21.779Z,55.12
2024-01-16T18:31:51.092Z,55.15
2024-01-16T18:34:21.731Z,55.43
2024-01-16T18:36:49.927Z,55.13
2024-01-16T18:39:21.602Z,55.18
2024-01-16T18:41:49.419Z,54.95
2024-01-16T18:44:19.186Z,54.99
2024-01-16T18:46:47.855Z,55.08
2024-01-16T18:49:14.671Z,55.15
2024-01-16T18:51:43.868Z,55.12
2024-01-16T18:54:10.771Z,55.09
2024-01-16T18:56:41.561Z,55.08
2024-01-16T18:59:10.570Z,55.14
2024-01-16T19:01:44.788Z,54.98
2024-01-16T19:04:23.527Z,55.16
2024-01-16T19:06:52.541Z,55.05
2024-01-16T19:09:24.565Z,55.31
2024-01-16T19:11:54.015Z,55.10
2024-01-16T19:14:23.906Z,55.19
2024-01-16T19:16:53.813Z,55.04
2024-01-16T19:19:26.747Z,54.91
2024-01-16T19:21:54.529Z,55.03
2024-01-16T19:24:21.401Z,54.92
2024-01-16T19:26:48.115Z,54.97
2024-01-16T19:29:20.199Z,55.02
2024-01-16T19:31:46.851Z,55.06
2024-01-16T19:34:13.716Z,55.18
2024-01-16T19:36:48.657Z,55.00
2024-01-16T19:39:26.109Z,54.92
2024-01-16T19:41:55.507Z,54.84
2024-01-16T19:44:24.521Z,54.98
2024-01-16T19:46:55.076Z,55.02
2024-01-16T19:49:24.918Z,55.03
2024-01-16T19:51:51.533Z,55.10
2024-01-16T19:54:18.124Z,54.95
2024-01-16T19:56:44.718Z,55.04
2024-01-16T19:59:11.502Z,55.03
2024-01-16T20:01:38.257Z,55.07
2024-01-16T20:04:06.597Z,55.00
2024-01-16T20:06:33.451Z,55.08
2024-01-16T20:09:02.894Z,55.29
2024-01-16T20:11:31.393Z,55.39
2024-01-16T20:14:01.042Z,55.59
2024-01-16T20:16:33.682Z,55.66
2024-01-16T20:19:00.446Z,55.58
2024-01-16T20:21:27.997Z,55.38
2024-01-16T20:23:58.022Z,55.50
2024-01-16T20:26:28.625Z,55.53
2024-01-16T20:28:58.318Z,55.38
2024-01-16T20:31:27.902Z,55.44
2024-01-16T20:33:54.717Z,55.59
2024-01-16T20:36:23.556Z,55.44
2024-01-16T20:38:50.234Z,55.42
2024-01-16T20:41:17.478Z,55.78
2024-01-16T20:43:45.129Z,55.46
2024-01-16T20:46:12.356Z,55.58
2024-01-16T20:48:39.434Z,55.53
2024-01-16T20:51:07.143Z,55.44
2024-01-16T20:53:34.030Z,55.72
2024-01-16T20:56:10.739Z,55.46
2024-01-16T20:58:39.546Z,55.62
2024-01-16T21:01:08.480Z,55.54
2024-01-16T21:03:35.431Z,55.55
2024-01-16T21:06:04.559Z,55.46
2024-01-16T21:08:32.589Z,55.47
2024-01-16T21:11:00.206Z,55.53
2024-01-16T21:13:29.100Z,55.30
2024-01-16T21:15:56.140Z,55.34
2024-01-16T21:18:23.481Z,55.30
2024-01-16T21:20:50.666Z,55.46
2024-01-16T21:23:17.360Z,55.14
2024-01-16T21:25:43.905Z,55.24
2024-01-16T21:28:11.035Z,55.14
2024-01-16T21:30:37.642Z,55.06
2024-01-16T21:33:04.566Z,55.21
2024-01-16T21:35:31.351Z,55.10
2024-01-16T21:37:57.972Z,55.08
2024-01-16T21:40:24.624Z,55.21
2024-01-16T21:42:51.361Z,55.04
2024-01-16T21:45:17.988Z,55.09
2024-01-16T21:47:44.949Z,55.05
2024-01-16T21:52:39.605Z,55.14
2024-01-16T21:55:07.471Z,55.16
2024-01-16T21:57:34.777Z,55.10
2024-01-16T22:00:04.043Z,55.22
2024-01-16T22:02:30.767Z,55.19
2024-01-16T22:04:57.592Z,55.13
2024-01-16T22:07:24.373Z,55.24
2024-01-16T22:09:50.926Z,55.08
2024-01-16T22:12:17.479Z,55.18
2024-01-16T22:14:44.368Z,55.03
2024-01-16T22:17:10.961Z,55.12
2024-01-16T22:19:37.619Z,55.05
2024-01-16T22:22:04.442Z,55.23
2024-01-16T22:24:31.048Z,55.19
2024-01-16T22:26:57.714Z,55.14
2024-01-16T22:29:24.310Z,55.16
2024-01-16T22:31:50.877Z,55.19
2024-01-16T22:34:19.291Z,55.06
2024-01-16T22:36:46.006Z,55.01
2024-01-16T22:39:16.782Z,55.19
2024-01-16T22:41:47.936Z,55.13
2024-01-16T22:44:15.307Z,55.29
2024-01-16T22:46:42.087Z,55.08
2024-01-16T22:49:09.223Z,54.89
2024-01-16T22:51:41.177Z,55.03
2024-01-16T22:54:08.187Z,54.89
2024-01-16T22:56:35.199Z,54.95
2024-01-16T22:59:04.271Z,54.88
2024-01-16T23:01:32.084Z,54.92
2024-01-16T23:03:59.213Z,54.95
2024-01-16T23:06:29.769Z,54.93
2024-01-16T23:08:56.970Z,54.83
2024-01-16T23:11:24.907Z,55.05
2024-01-16T23:13:52.429Z,54.94
2024-01-16T23:16:19.447Z,54.97
2024-01-16T23:18:47.481Z,55.17
2024-01-16T23:21:15.372Z,54.69
2024-01-16T23:23:45.962Z,55.02
2024-01-16T23:26:13.399Z,54.87
2024-01-16T23:28:41.126Z,55.05
2024-01-16T23:31:08.851Z,55.04
2024-01-16T23:33:35.965Z,55.00
2024-01-16T23:36:03.133Z,54.91
2024-01-16T23:38:29.986Z,54.90
2024-01-16T23:40:59.591Z,54.91
2024-01-16T23:43:29.010Z,55.03
2024-01-16T23:45:55.643Z,55.02
2024-01-16T23:48:22.499Z,54.93
2024-01-16T23:50:49.509Z,55.02
2024-01-16T23:53:16.646Z,54.92
2024-01-16T23:55:43.317Z,54.94
2024-01-16T23:58:10.315Z,55.13
